Time;durP1;ratioP1;P1;durP2;ratioP2;P2;SDS_P1;SDS_P2;PMS_P1;PMS_P2;Temp;Humidity;BMP_temperature;BMP_pressure;BME280_temperature;BME280_humidity;BME280_pressure;Samples;Min_cycle;Max_cycle;Signal;HPM_P1;HPM_P2
2023/04/09 00:01:58;;;;;;;42.10;29.25;;;;;;;4.80;100.00;93259.09;5041301;28;20041;-71
2023/04/09 00:04:26;;;;;;;38.80;27.92;;;;;;;4.77;100.00;93264.53;5027755;28;20045;-72
2023/04/09 00:06:53;;;;;;;41.90;30.65;;;;;;;4.62;100.00;93250.00;5027764;28;20041;-71
2023/04/09 00:09:20;;;;;;;42.90;30.40;;;;;;;4.61;100.00;93263.69;5027567;28;20061;-71
2023/04/09 00:11:47;;;;;;;48.85;33.05;;;;;;;4.54;100.00;93267.91;5027341;28;20045;-71
2023/04/09 00:14:13;;;;;;;44.13;32.85;;;;;;;4.45;100.00;93253.66;5027914;28;20064;-71
2023/04/09 00:16:40;;;;;;;47.53;34.97;;;;;;;4.44;100.00;93268.09;5027325;28;20103;-71
2023/04/09 00:19:07;;;;;;;47.67;32.95;;;;;;;4.51;100.00;93268.22;5026809;28;20050;-71
2023/04/09 00:21:35;;;;;;;46.80;32.17;;;;;;;4.65;100.00;93270.03;5043232;28;20135;-71
2023/04/09 00:24:02;;;;;;;44.08;32.28;;;;;;;4.67;100.00;93270.66;5047341;28;20052;-71
2023/04/09 00:26:29;;;;;;;43.22;30.27;;;;;;;4.74;100.00;93269.97;5047123;28;20045;-71
2023/04/09 00:28:55;;;;;;;46.80;33.25;;;;;;;4.66;100.00;93273.34;5046982;28;20547;-71
2023/04/09 00:31:22;;;;;;;53.40;34.40;;;;;;;4.44;100.00;93267.34;5047158;28;20044;-71
2023/04/09 00:33:49;;;;;;;57.00;38.55;;;;;;;4.34;100.00;93263.25;5046793;28;20064;-71
2023/04/09 00:36:16;;;;;;;50.85;34.55;;;;;;;4.41;100.00;93271.78;5047658;28;20045;-71
2023/04/09 00:38:44;;;;;;;53.22;35.15;;;;;;;4.56;100.00;93276.16;5045173;28;20101;-71
2023/04/09 00:41:10;;;;;;;46.63;32.47;;;;;;;4.65;100.00;93277.66;5027066;28;20053;-71
2023/04/09 00:43:37;;;;;;;41.97;28.65;;;;;;;4.71;100.00;93276.19;5026890;28;20087;-71
2023/04/09 00:46:04;;;;;;;42.13;30.42;;;;;;;4.79;100.00;93275.31;5026827;28;20045;-71
2023/04/09 00:48:31;;;;;;;40.47;28.58;;;;;;;4.88;100.00;93279.38;5026685;28;20119;-71
2023/04/09 00:50:58;;;;;;;39.22;27.35;;;;;;;4.97;100.00;93281.84;5026947;28;20052;-72
2023/04/09 00:53:25;;;;;;;41.20;29.48;;;;;;;4.98;100.00;93266.41;5026776;28;20560;-72
2023/04/09 00:55:55;;;;;;;42.33;29.75;;;;;;;5.13;100.00;93276.59;5026980;28;20095;-72
2023/04/09 00:58:22;;;;;;;68.25;39.92;;;;;;;5.22;100.00;93278.13;5026714;28;20498;-71
2023/04/09 01:00:48;;;;;;;39.38;28.58;;;;;;;5.26;100.00;93277.75;5029340;28;20045;-71
2023/04/09 01:03:15;;;;;;;40.05;28.95;;;;;;;5.27;100.00;93275.03;5026763;28;20107;-71
2023/04/09 01:05:54;;;;;;;41.10;29.45;;;;;;;5.26;100.00;93276.00;5026832;28;20054;-71
2023/04/09 01:08:31;;;;;;;38.88;28.10;;;;;;;5.29;100.00;93280.75;5026558;28;20046;-70
2023/04/09 01:11:10;;;;;;;40.30;29.35;;;;;;;5.30;100.00;93282.34;5028255;28;20110;-71
2023/04/09 01:13:47;;;;;;;41.08;29.13;;;;;;;5.34;100.00;93283.56;5027793;28;20041;-71
2023/04/09 01:16:17;;;;;;;40.92;30.23;;;;;;;5.39;100.00;93280.50;5026931;28;20100;-71
2023/04/09 01:18:49;;;;;;;41.83;29.70;;;;;;;5.44;100.00;93280.75;5026241;28;20057;-71
2023/04/09 01:21:20;;;;;;;46.22;29.83;;;;;;;5.48;100.00;93281.97;5040109;28;20037;-71
2023/04/09 01:23:54;;;;;;;43.88;30.35;;;;;;;5.33;100.00;93278.66;5046755;28;20049;-71
2023/04/09 01:26:45;;;;;;;41.55;29.70;;;;;;;5.26;100.00;93277.75;5046276;28;20513;-71
2023/04/09 01:29:17;;;;;;;42.10;28.05;;;;;;;5.16;100.00;93262.75;5026480;28;20064;-72
2023/04/09 01:31:45;;;;;;;43.33;30.30;;;;;;;5.27;100.00;93269.94;5026196;28;20100;-70
2023/04/09 01:34:13;;;;;;;47.75;30.75;;;;;;;5.32;100.00;93275.31;5026639;28;20049;-70
2023/04/09 01:36:42;;;;;;;57.40;37.88;;;;;;;5.19;100.00;93264.94;5026451;28;20054;-70
2023/04/09 01:39:09;;;;;;;45.90;30.30;;;;;;;5.11;100.00;93259.91;5026572;28;20041;-70
2023/04/09 01:41:37;;;;;;;43.88;29.13;;;;;;;5.11;100.00;93267.56;5027451;28;20045;-71
2023/04/09 01:44:07;;;;;;;45.80;29.30;;;;;;;5.12;100.00;93271.69;5030710;28;20045;-70
2023/04/09 01:46:37;;;;;;;43.47;29.35;;;;;;;5.18;100.00;93271.78;5029883;28;20628;-70
2023/04/09 01:49:04;;;;;;;37.80;27.15;;;;;;;5.09;100.00;93270.28;5029994;28;20578;-70
2023/04/09 01:51:32;;;;;;;39.70;27.70;;;;;;;5.07;100.00;93264.56;5030575;28;20037;-70
2023/04/09 01:53:59;;;;;;;40.65;26.65;;;;;;;5.05;100.00;93282.56;5030260;28;20037;-70
2023/04/09 01:56:26;;;;;;;37.40;27.13;;;;;;;5.20;100.00;93276.72;5030039;28;20585;-70
2023/04/09 01:58:53;;;;;;;38.42;27.27;;;;;;;5.32;100.00;93280.41;5030027;28;20124;-70
2023/04/09 02:01:24;;;;;;;40.45;28.60;;;;;;;5.39;100.00;93270.31;5029979;28;20095;-71
2023/04/09 02:03:56;;;;;;;40.00;27.95;;;;;;;5.47;100.00;93274.53;5030045;28;20445;-71
2023/04/09 02:06:32;;;;;;;37.67;27.00;;;;;;;5.48;100.00;93271.00;5029751;28;20041;-71
2023/04/09 02:09:01;;;;;;;36.47;26.17;;;;;;;5.48;100.00;93265.91;5029801;28;20045;-71
2023/04/09 02:11:29;;;;;;;36.47;26.35;;;;;;;5.29;100.00;93262.13;5029744;28;20041;-71
2023/04/09 02:13:56;;;;;;;37.65;27.50;;;;;;;4.82;100.00;93247.78;5029853;28;20176;-70
2023/04/09 02:16:23;;;;;;;38.58;28.88;;;;;;;4.84;100.00;93249.34;5029396;28;20053;-70
2023/04/09 02:18:55;;;;;;;46.58;30.92;;;;;;;5.02;100.00;93259.22;5029841;28;20506;-70
2023/04/09 02:21:22;;;;;;;40.75;29.30;;;;;;;4.73;100.00;93246.28;5044309;28;20080;-71
2023/04/09 02:23:49;;;;;;;40.70;28.92;;;;;;;4.70;100.00;93261.06;5050030;28;20110;-71
2023/04/09 02:26:16;;;;;;;38.05;28.23;;;;;;;4.48;100.00;93259.19;5049744;28;20079;-70
2023/04/09 02:28:43;;;;;;;42.78;30.77;;;;;;;4.36;100.00;93268.97;5049438;28;20045;-70
2023/04/09 02:31:10;;;;;;;70.80;46.35;;;;;;;4.37;100.00;93265.47;5049071;28;20490;-70
2023/04/09 02:33:36;;;;;;;65.93;41.10;;;;;;;4.46;100.00;93265.41;5049354;28;20044;-70
2023/04/09 02:36:05;;;;;;;50.08;33.88;;;;;;;4.49;100.00;93262.53;5049165;28;20041;-70
2023/04/09 02:38:32;;;;;;;44.65;32.58;;;;;;;4.37;100.00;93246.88;5049245;28;20447;-70
2023/04/09 02:40:59;;;;;;;50.42;33.90;;;;;;;4.57;100.00;93256.59;5049475;28;20099;-70
2023/04/09 02:43:26;;;;;;;48.10;32.97;;;;;;;4.74;100.00;93260.59;5049126;28;20111;-71
2023/04/09 02:45:52;;;;;;;50.83;32.53;;;;;;;4.87;100.00;93261.75;5048883;28;20045;-70
2023/04/09 02:48:19;;;;;;;50.10;33.78;;;;;;;5.04;100.00;93265.72;5049326;28;20098;-70
2023/04/09 02:50:46;;;;;;;51.75;34.20;;;;;;;5.17;100.00;93262.56;5048709;28;20053;-70
2023/04/09 02:53:14;;;;;;;54.58;37.60;;;;;;;5.28;100.00;93263.09;5047841;28;20102;-70
2023/04/09 02:55:40;;;;;;;47.55;32.53;;;;;;;5.37;100.00;93264.56;5048931;28;20505;-70
2023/04/09 02:58:07;;;;;;;50.85;31.55;;;;;;;5.44;100.00;93268.03;5048814;28;20103;-70
2023/04/09 03:00:34;;;;;;;44.88;30.80;;;;;;;5.46;100.00;93262.75;5048411;28;20563;-70
2023/04/09 03:03:00;;;;;;;47.22;31.42;;;;;;;5.50;100.00;93263.19;5048971;28;20049;-70
2023/04/09 03:05:27;;;;;;;51.60;29.73;;;;;;;5.47;100.00;93254.16;5048663;28;20130;-70
2023/04/09 03:07:54;;;;;;;44.70;30.88;;;;;;;5.42;100.00;93248.78;5049021;28;20410;-70
2023/04/09 03:10:23;;;;;;;46.95;28.98;;;;;;;5.25;100.00;93227.78;5048484;28;20533;-70
2023/04/09 03:12:49;;;;;;;44.13;30.50;;;;;;;5.47;100.00;93256.69;5048219;28;20041;-70
2023/04/09 03:15:16;;;;;;;46.58;29.00;;;;;;;5.53;100.00;93250.09;5048642;28;20532;-70
2023/04/09 03:17:43;;;;;;;44.40;29.02;;;;;;;5.47;100.00;93249.81;5048475;28;20387;-70
2023/04/09 03:20:10;;;;;;;46.47;30.52;;;;;;;5.39;100.00;93249.13;5048461;28;20139;-70
2023/04/09 03:22:37;;;;;;;44.60;30.50;;;;;;;5.37;100.00;93243.44;5048422;28;20493;-70
2023/04/09 03:25:04;;;;;;;50.63;30.92;;;;;;;5.43;100.00;93258.00;5048145;28;20045;-70
2023/04/09 03:27:33;;;;;;;49.08;31.33;;;;;;;5.37;100.00;93236.56;5048008;28;20095;-70
2023/04/09 03:30:00;;;;;;;45.55;31.40;;;;;;;5.49;100.00;93249.66;5048119;28;20452;-70
2023/04/09 03:32:27;;;;;;;51.05;31.67;;;;;;;5.53;100.00;93253.44;5047797;28;20136;-71
2023/04/09 03:34:53;;;;;;;49.47;31.38;;;;;;;5.59;100.00;93257.00;5040861;28;20458;-70
2023/04/09 03:37:20;;;;;;;42.90;31.63;;;;;;;5.57;100.00;93247.03;5028545;28;20107;-70
2023/04/09 03:39:47;;;;;;;48.20;30.52;;;;;;;5.65;100.00;93258.84;5027914;28;20046;-70
2023/04/09 03:42:13;;;;;;;46.30;29.70;;;;;;;5.68;100.00;93263.59;5027961;28;20053;-70
2023/04/09 03:44:41;;;;;;;42.45;28.55;;;;;;;5.68;100.00;93260.25;5028087;28;21152;-70
2023/04/09 03:47:08;;;;;;;35.10;25.92;;;;;;;5.71;100.00;93260.72;5028675;28;20049;-70
2023/04/09 03:49:35;;;;;;;37.95;25.02;;;;;;;5.76;100.00;93257.63;5043409;28;20548;-70
2023/04/09 03:52:02;;;;;;;33.33;23.45;;;;;;;5.79;100.00;93264.13;5039256;28;20497;-71
2023/04/09 03:54:29;;;;;;;35.78;25.48;;;;;;;5.78;100.00;93260.00;5040251;28;20053;-70
2023/04/09 03:56:56;;;;;;;36.08;26.05;;;;;;;5.81;100.00;93265.53;5039929;28;20048;-70
2023/04/09 03:59:23;;;;;;;42.40;28.45;;;;;;;5.79;100.00;93261.56;5046314;28;20052;-70
2023/04/09 04:01:51;;;;;;;44.50;30.10;;;;;;;5.78;100.00;93265.88;5047415;28;20049;-70
2023/04/09 04:04:17;;;;;;;44.92;31.95;;;;;;;5.77;100.00;93263.50;5047330;28;20052;-70
2023/04/09 04:06:44;;;;;;;43.72;31.70;;;;;;;5.76;100.00;93265.28;5047441;28;20049;-70
2023/04/09 04:09:11;;;;;;;177.95;68.75;;;;;;;5.76;100.00;93275.47;5047527;28;20556;-70
2023/04/09 04:11:37;;;;;;;50.85;31.83;;;;;;;5.71;100.00;93265.00;5047540;28;20095;-70
2023/04/09 04:14:04;;;;;;;56.17;32.42;;;;;;;5.79;100.00;93272.53;5030727;28;20045;-70
2023/04/09 04:16:31;;;;;;;45.65;31.77;;;;;;;5.77;100.00;93277.03;5027578;28;20107;-70
2023/04/09 04:18:59;;;;;;;51.72;33.90;;;;;;;5.67;100.00;93271.41;5027619;28;20050;-70
2023/04/09 04:21:26;;;;;;;44.70;31.38;;;;;;;5.62;100.00;93266.88;5027690;28;20053;-70
2023/04/09 04:23:52;;;;;;;54.95;34.25;;;;;;;5.66;100.00;93267.31;5035817;28;20045;-70
2023/04/09 04:26:19;;;;;;;49.97;34.85;;;;;;;5.66;100.00;93272.41;5047119;28;20052;-70
2023/04/09 04:28:46;;;;;;;49.85;32.55;;;;;;;5.64;100.00;93270.00;5047294;28;20088;-70
2023/04/09 04:31:13;;;;;;;52.10;34.85;;;;;;;5.67;100.00;93269.69;5031768;28;20089;-70
2023/04/09 04:33:41;;;;;;;59.72;37.40;;;;;;;5.73;100.00;93273.25;5036669;28;20045;-70
2023/04/09 04:36:11;;;;;;;86.78;50.60;;;;;;;5.78;100.00;93273.50;5046688;28;20052;-70
2023/04/09 04:38:40;;;;;;;65.65;36.28;;;;;;;5.81;100.00;93277.47;5047231;28;20048;-71
2023/04/09 04:41:07;;;;;;;54.40;30.92;;;;;;;5.86;100.00;93275.97;5046725;28;20556;-71
2023/04/09 04:43:33;;;;;;;65.10;34.13;;;;;;;5.88;100.00;93274.03;5047177;28;20105;-71
2023/04/09 04:46:00;;;;;;;66.13;35.22;;;;;;;5.96;100.00;93273.13;5047027;28;20452;-71
2023/04/09 04:48:29;;;;;;;63.40;34.33;;;;;;;6.00;100.00;93273.56;5046987;28;20049;-71
2023/04/09 04:50:57;;;;;;;69.70;34.60;;;;;;;6.07;100.00;93279.53;5046837;28;20052;-71
2023/04/09 04:53:25;;;;;;;38.70;25.20;;;;;;;5.38;100.00;93214.44;5047118;28;20069;-71
2023/04/09 04:55:53;;;;;;;25.50;18.65;;;;;;;5.73;100.00;93275.81;5046855;28;20044;-71
2023/04/09 04:58:20;;;;;;;27.90;20.20;;;;;;;5.78;100.00;93267.66;5047177;28;20094;-71
2023/04/09 05:00:46;;;;;;;30.38;22.23;;;;;;;5.66;100.00;93268.09;5037779;28;20470;-71
2023/04/09 05:03:13;;;;;;;27.75;20.08;;;;;;;5.74;100.00;93278.19;5044003;28;20044;-70
2023/04/09 05:05:40;;;;;;;22.65;17.45;;;;;;;5.56;100.00;93275.22;5047107;28;20045;-70
2023/04/09 05:08:07;;;;;;;28.92;19.33;;;;;;;5.58;100.00;93274.09;5046434;28;20049;-71
2023/04/09 05:10:36;;;;;;;24.42;18.60;;;;;;;5.63;100.00;93276.09;5046307;28;20052;-71
2023/04/09 05:13:03;;;;;;;25.98;20.15;;;;;;;5.71;100.00;93275.19;5046837;28;20049;-71
2023/04/09 05:15:30;;;;;;;27.27;20.02;;;;;;;5.81;100.00;93269.81;5047353;28;20150;-71
2023/04/09 05:17:57;;;;;;;26.67;19.52;;;;;;;5.77;100.00;93277.03;5049633;28;20488;-71
2023/04/09 05:20:23;;;;;;;27.05;20.15;;;;;;;5.78;100.00;93270.97;5050960;28;20107;-71
2023/04/09 05:22:51;;;;;;;29.35;21.73;;;;;;;5.81;100.00;93272.38;5050974;28;20044;-71
2023/04/09 05:25:17;;;;;;;25.17;20.45;;;;;;;5.72;100.00;93277.59;5050524;28;20053;-70
2023/04/09 05:27:45;;;;;;;27.95;20.85;;;;;;;5.73;100.00;93279.16;5051130;28;20099;-70
2023/04/09 05:30:12;;;;;;;24.30;18.00;;;;;;;5.69;100.00;93282.25;5051036;28;20527;-70
2023/04/09 05:32:39;;;;;;;23.80;18.27;;;;;;;5.73;100.00;93291.09;5050526;28;20045;-70
2023/04/09 05:35:06;;;;;;;25.27;18.45;;;;;;;5.68;100.00;93281.44;5050771;28;20404;-70
2023/04/09 05:37:33;;;;;;;22.20;16.58;;;;;;;5.68;100.00;93284.00;5050550;28;20454;-70
2023/04/09 05:40:00;;;;;;;25.13;18.95;;;;;;;5.84;100.00;93283.00;5050581;28;20045;-71
2023/04/09 05:42:29;;;;;;;24.05;18.27;;;;;;;5.97;100.00;93281.59;5048549;28;20041;-71
2023/04/09 05:45:10;;;;;;;26.45;18.50;;;;;;;6.07;100.00;93284.66;5036702;28;20510;-71
2023/04/09 05:47:37;;;;;;;27.00;19.95;;;;;;;6.06;100.00;93270.31;5047789;28;20095;-71
2023/04/09 05:50:04;;;;;;;27.48;20.40;;;;;;;6.27;100.00;93290.00;5038143;28;20045;-71
2023/04/09 05:52:31;;;;;;;27.60;20.10;;;;;;;6.48;100.00;93296.06;5035547;28;20049;-71
2023/04/09 05:54:58;;;;;;;24.83;18.65;;;;;;;6.44;100.00;93274.44;5043470;28;20091;-71
2023/04/09 05:57:24;;;;;;;26.48;20.23;;;;;;;6.72;100.00;93299.22;5050051;28;20114;-71
2023/04/09 05:59:51;;;;;;;24.52;17.58;;;;;;;6.81;100.00;93298.09;5040695;28;20091;-71
2023/04/09 06:02:19;;;;;;;21.92;17.27;;;;;;;6.93;100.00;93307.81;5037503;28;20048;-71
2023/04/09 06:04:46;;;;;;;24.05;18.17;;;;;;;7.05;100.00;93308.13;5039384;28;20045;-71
2023/04/09 06:07:13;;;;;;;32.45;21.30;;;;;;;7.18;100.00;93308.22;5036785;28;20045;-71
2023/04/09 06:09:39;;;;;;;24.48;17.92;;;;;;;7.32;100.00;93310.88;5037397;28;20045;-72
2023/04/09 06:12:06;;;;;;;23.13;16.73;;;;;;;7.06;100.00;93277.28;5043812;28;20778;-71
2023/04/09 06:14:33;;;;;;;22.10;17.65;;;;;;;7.37;100.00;93315.41;5047257;28;20111;-71
2023/04/09 06:16:59;;;;;;;20.80;16.42;;;;;;;7.31;100.00;93312.63;5048805;28;20099;-71
2023/04/09 06:19:30;;;;;;;21.90;16.33;;;;;;;7.44;100.00;93318.78;5038754;28;20054;-73
2023/04/09 06:21:57;;;;;;;21.40;17.48;;;;;;;7.42;100.00;93313.09;5042583;28;20048;-71
2023/04/09 06:24:24;;;;;;;20.30;15.90;;;;;;;7.51;100.00;93318.84;5043806;28;20111;-71
2023/04/09 06:26:50;;;;;;;23.02;17.15;;;;;;;7.66;100.00;93316.97;5042193;28;20045;-71
2023/04/09 06:29:20;;;;;;;32.08;22.17;;;;;;;7.60;100.00;93315.94;5043762;28;20421;-71
2023/04/09 06:31:47;;;;;;;23.27;17.10;;;;;;;7.66;100.00;93323.84;5045888;28;20063;-70
2023/04/09 06:34:16;;;;;;;23.20;16.77;;;;;;;7.59;100.00;93321.25;5039054;28;20460;-71
2023/04/09 06:36:46;;;;;;;23.73;18.27;;;;;;;7.45;100.00;93320.41;5042519;28;20051;-71
2023/04/09 06:39:12;;;;;;;24.23;17.80;;;;;;;7.13;100.00;93320.75;5040424;28;20052;-71
2023/04/09 06:41:42;;;;;;;25.55;18.95;;;;;;;7.29;100.00;93319.69;5039443;28;20080;-71
2023/04/09 06:44:09;;;;;;;21.65;17.00;;;;;;;7.42;100.00;93320.75;5043592;28;20395;-70
2023/04/09 06:46:36;;;;;;;23.55;18.70;;;;;;;7.09;100.00;93315.22;5046176;28;20069;-70
2023/04/09 06:49:02;;;;;;;29.23;20.65;;;;;;;7.15;100.00;93315.47;5049223;28;20087;-70
2023/04/09 06:51:29;;;;;;;25.38;18.75;;;;;;;7.22;100.00;93304.31;5048234;28;20138;-71
2023/04/09 06:53:57;;;;;;;28.42;20.05;;;;;;;6.70;100.00;93308.81;5036892;28;20472;-71
2023/04/09 06:56:24;;;;;;;22.88;17.00;;;;;;;6.77;100.00;93312.22;5047442;28;20088;-70
2023/04/09 06:58:50;;;;;;;24.52;18.70;;;;;;;6.90;100.00;93308.97;5048945;28;20472;-70
2023/04/09 07:01:17;;;;;;;27.00;19.60;;;;;;;6.80;100.00;93306.75;5048693;28;20481;-70
2023/04/09 07:03:44;;;;;;;26.17;18.98;;;;;;;6.99;100.00;93306.31;5048430;28;20567;-70
2023/04/09 07:06:11;;;;;;;27.10;20.98;;;;;;;6.88;100.00;93312.69;5048508;28;20045;-71
2023/04/09 07:08:38;;;;;;;36.60;27.17;;;;;;;7.04;100.00;93299.66;5048913;28;20053;-71
2023/04/09 07:11:06;;;;;;;27.38;20.70;;;;;;;7.39;100.00;93311.69;5048375;28;20041;-70
2023/04/09 07:13:32;;;;;;;23.85;18.33;;;;;;;7.27;100.00;93313.19;5048469;28;20048;-70
2023/04/09 07:15:59;;;;;;;23.80;18.85;;;;;;;7.51;100.00;93308.63;5035274;28;20088;-70
2023/04/09 07:18:26;;;;;;;22.15;16.90;;;;;;;7.75;100.00;93318.41;5048442;28;20056;-70
2023/04/09 07:20:52;;;;;;;28.38;18.42;;;;;;;8.10;100.00;93319.34;5048048;28;20094;-70
2023/04/09 07:23:20;;;;;;;27.20;20.52;;;;;;;8.43;100.00;93319.41;5046542;28;20051;-71
2023/04/09 07:25:47;;;;;;;25.33;18.33;;;;;;;8.60;100.00;93321.66;5048565;28;20442;-70
2023/04/09 07:28:15;;;;;;;25.27;18.20;;;;;;;8.85;100.00;93325.44;5048293;28;20147;-71
2023/04/09 07:30:41;;;;;;;23.33;17.70;;;;;;;9.05;100.00;93321.13;5047796;28;20053;-70
2023/04/09 07:33:08;;;;;;;24.73;19.13;;;;;;;9.23;100.00;93322.28;5047304;28;20052;-71
2023/04/09 07:35:35;;;;;;;25.80;19.52;;;;;;;9.40;100.00;93319.31;5047058;28;20087;-71
2023/04/09 07:38:05;;;;;;;24.35;19.13;;;;;;;9.56;100.00;93312.97;5048217;28;20063;-71
2023/04/09 07:40:34;;;;;;;25.67;18.30;;;;;;;9.60;100.00;93289.31;5047098;28;20062;-71
2023/04/09 07:43:00;;;;;;;21.00;15.93;;;;;;;9.23;100.00;93320.50;5047891;28;20052;-70
2023/04/09 07:45:29;;;;;;;22.17;15.45;;;;;;;9.15;100.00;93315.59;5046998;28;20128;-71
2023/04/09 07:47:57;;;;;;;20.05;15.77;;;;;;;9.42;100.00;93323.25;5047310;28;20045;-72
2023/04/09 07:50:24;;;;;;;19.90;14.73;;;;;;;9.31;100.00;93327.19;5046920;28;20468;-71
2023/04/09 07:52:57;;;;;;;18.52;15.00;;;;;;;9.01;100.00;93335.28;5046950;28;20051;-71
2023/04/09 07:55:23;;;;;;;23.02;17.27;;;;;;;9.10;100.00;93328.19;5047144;28;20080;-71
2023/04/09 07:57:50;;;;;;;24.27;17.55;;;;;;;9.26;100.00;93326.22;5047609;28;20045;-71
2023/04/09 08:00:18;;;;;;;23.38;17.13;;;;;;;9.20;100.00;93327.78;5047676;28;20517;-71
2023/04/09 08:02:46;;;;;;;20.55;14.40;;;;;;;9.04;100.00;93327.22;5047265;28;20045;-70
2023/04/09 08:05:12;;;;;;;20.70;14.70;;;;;;;9.15;100.00;93320.72;5046756;28;20460;-71
2023/04/09 08:07:39;;;;;;;21.85;15.65;;;;;;;9.60;100.00;93314.97;5047195;28;20040;-71
2023/04/09 08:10:07;;;;;;;19.17;14.05;;;;;;;9.55;100.00;93331.91;5046748;28;20572;-71
2023/04/09 08:12:33;;;;;;;20.73;14.65;;;;;;;9.91;100.00;93315.28;5046893;28;20056;-71
2023/04/09 08:15:02;;;;;;;20.33;14.40;;;;;;;10.37;100.00;93328.88;5046862;28;20045;-71
2023/04/09 08:17:29;;;;;;;21.48;15.52;;;;;;;10.74;100.00;93323.19;5046616;28;20049;-71
2023/04/09 08:20:00;;;;;;;17.02;13.73;;;;;;;11.06;100.00;93323.16;5047253;28;20045;-71
2023/04/09 08:22:27;;;;;;;21.67;14.20;;;;;;;11.18;97.98;93318.13;5046987;28;20049;-71
2023/04/09 08:24:54;;;;;;;18.10;13.32;;;;;;;10.55;95.53;93317.16;5047252;28;20053;-71
2023/04/09 08:27:20;;;;;;;21.35;15.57;;;;;;;10.36;96.69;93319.63;5044736;28;20132;-71
2023/04/09 08:29:47;;;;;;;19.35;13.32;;;;;;;10.36;98.12;93283.66;5046616;28;20118;-71
2023/04/09 08:32:20;;;;;;;16.63;12.77;;;;;;;10.37;97.88;93305.00;5046620;28;20559;-71
2023/04/09 08:34:50;;;;;;;20.35;14.05;;;;;;;10.79;99.63;93307.94;5046852;28;20051;-72
2023/04/09 08:37:28;;;;;;;16.45;12.82;;;;;;;11.26;99.71;93301.66;5047273;28;20446;-72
2023/04/09 08:40:01;;;;;;;15.05;12.07;;;;;;;10.60;96.34;93314.00;5044027;28;20444;-72
2023/04/09 08:42:31;;;;;;;16.58;11.65;;;;;;;10.67;99.86;93307.81;5046842;28;20098;-71
2023/04/09 08:44:58;;;;;;;15.13;11.60;;;;;;;10.32;96.83;93308.16;5046302;28;20053;-71
2023/04/09 08:47:26;;;;;;;21.48;14.30;;;;;;;10.21;100.00;93296.78;5046633;28;20052;-71
2023/04/09 08:49:53;;;;;;;18.23;13.38;;;;;;;10.63;100.00;93295.59;5046753;28;20493;-71
2023/04/09 08:52:32;;;;;;;15.32;11.40;;;;;;;10.68;92.38;93278.56;5045701;28;20106;-71
2023/04/09 08:54:58;;;;;;;14.63;10.77;;;;;;;11.38;91.07;93291.44;5046588;28;20094;-71
2023/04/09 08:57:25;;;;;;;23.40;15.10;;;;;;;11.93;97.74;93292.47;5046373;28;20070;-72
2023/04/09 08:59:52;;;;;;;60.00;46.40;;;;;;;12.36;98.34;93284.88;5046796;28;20525;-72
2023/04/09 09:02:18;;;;;;;29.80;21.17;;;;;;;13.03;95.14;93293.44;5046553;28;20053;-71
2023/04/09 09:04:47;;;;;;;38.05;28.00;;;;;;;13.50;90.29;93282.38;5033745;28;20048;-71
2023/04/09 09:07:14;;;;;;;16.95;11.63;;;;;;;13.74;79.96;93283.13;5046723;28;20045;-72
2023/04/09 09:09:56;;;;;;;14.63;10.50;;;;;;;13.59;76.57;93283.59;5046794;28;20456;-71
2023/04/09 09:12:38;;;;;;;28.70;14.88;;;;;;;13.84;83.57;93285.13;5046471;28;20053;-71
2023/04/09 09:15:06;;;;;;;20.20;13.13;;;;;;;13.77;81.43;93276.72;5035441;28;20115;-71
2023/04/09 09:17:52;;;;;;;31.90;22.33;;;;;;;14.01;81.66;93276.66;5046523;28;20095;-71
2023/04/09 09:20:26;;;;;;;37.42;29.33;;;;;;;13.87;81.22;93273.56;5046666;28;20122;-71
2023/04/09 09:23:01;;;;;;;26.63;18.65;;;;;;;13.44;81.48;93241.97;5046571;28;20120;-71
2023/04/09 09:25:29;;;;;;;26.80;19.25;;;;;;;13.54;82.26;93280.13;5046755;28;20409;-71
2023/04/09 09:28:07;;;;;;;26.35;16.67;;;;;;;13.49;83.49;93271.28;5046841;28;20052;-71
2023/04/09 09:30:35;;;;;;;27.30;15.55;;;;;;;13.56;84.31;93276.31;5036672;28;20141;-71
2023/04/09 09:33:05;;;;;;;24.23;15.77;;;;;;;13.38;81.52;93269.44;5043430;28;20059;-72
2023/04/09 09:35:47;;;;;;;23.10;14.98;;;;;;;13.13;84.08;93267.09;5047178;28;20444;-71
2023/04/09 09:38:15;;;;;;;18.30;12.43;;;;;;;12.95;82.64;93273.91;5033331;28;20071;-71
2023/04/09 09:40:43;;;;;;;29.55;21.80;;;;;;;12.92;86.86;93269.97;5046562;28;20056;-71
2023/04/09 09:43:10;;;;;;;39.40;27.25;;;;;;;13.27;84.67;93270.22;5046491;28;20053;-72
2023/04/09 09:45:36;;;;;;;20.48;14.60;;;;;;;13.18;83.89;93262.84;5046309;28;20107;-71
2023/04/09 09:48:05;;;;;;;17.92;12.23;;;;;;;13.34;79.15;93245.13;5046180;28;20095;-71
2023/04/09 09:50:34;;;;;;;23.02;15.18;;;;;;;13.71;83.20;93262.16;5046193;28;20049;-71
2023/04/09 09:53:04;;;;;;;17.30;12.05;;;;;;;12.93;83.56;93265.63;5046410;28;20044;-71
2023/04/09 09:55:32;;;;;;;59.80;41.83;;;;;;;13.21;85.23;93253.88;5033373;28;20053;-71
2023/04/09 09:58:03;;;;;;;19.95;13.35;;;;;;;12.67;80.44;93260.66;5045881;28;20049;-71
2023/04/09 10:00:32;;;;;;;19.52;12.88;;;;;;;13.09;84.48;93257.22;5045951;28;20049;-71
2023/04/09 10:03:07;;;;;;;35.92;16.67;;;;;;;13.31;83.88;93255.88;5048039;28;20115;-71
2023/04/09 10:05:37;;;;;;;32.45;21.13;;;;;;;13.47;81.49;93259.63;5036849;28;20067;-71
2023/04/09 10:08:05;;;;;;;21.52;14.07;;;;;;;13.23;80.79;93260.38;5049965;28;20102;-71
2023/04/09 10:10:32;;;;;;;19.05;13.23;;;;;;;13.29;81.50;93261.25;5050062;28;20132;-71
2023/04/09 10:13:01;;;;;;;16.33;11.88;;;;;;;13.06;79.31;93272.38;5049911;28;20099;-71
2023/04/09 10:15:29;;;;;;;21.95;12.85;;;;;;;13.11;81.43;93262.16;5049905;28;20434;-71
2023/04/09 10:17:57;;;;;;;18.75;14.02;;;;;;;13.06;79.81;93267.97;5049717;28;20057;-71
2023/04/09 10:20:31;;;;;;;23.30;15.27;;;;;;;13.04;82.42;93264.06;5049295;28;20115;-71
2023/04/09 10:23:01;;;;;;;20.42;13.50;;;;;;;12.65;83.57;93254.16;5049844;28;20041;-71
2023/04/09 10:25:28;;;;;;;51.20;33.67;;;;;;;12.62;84.47;93268.25;5049514;28;20045;-71
2023/04/09 10:28:02;;;;;;;18.33;13.43;;;;;;;12.54;83.33;93268.56;5049208;28;20045;-71
2023/04/09 10:30:33;;;;;;;22.95;15.70;;;;;;;12.42;84.69;93269.31;5049674;28;20045;-71
2023/04/09 10:33:10;;;;;;;84.95;58.05;;;;;;;12.37;84.67;93265.84;5049201;28;20048;-71
2023/04/09 10:35:37;;;;;;;33.92;19.23;;;;;;;12.34;83.96;93256.75;5049525;28;20052;-71
2023/04/09 10:38:03;;;;;;;24.83;16.65;;;;;;;12.42;85.57;93264.16;5049290;28;20489;-71
2023/04/09 10:40:30;;;;;;;31.50;21.45;;;;;;;12.38;85.06;93263.03;5049062;28;20045;-71
2023/04/09 10:42:59;;;;;;;17.83;12.05;;;;;;;12.24;83.55;93269.38;5048557;28;20091;-71
2023/04/09 10:45:39;;;;;;;17.40;11.35;;;;;;;12.02;83.47;93259.50;5049435;28;20041;-70
2023/04/09 10:48:10;;;;;;;18.45;11.68;;;;;;;12.01;83.57;93266.47;5049130;28;20044;-71
2023/04/09 10:50:38;;;;;;;13.13;9.93;;;;;;;11.93;81.96;93269.31;5049502;28;20045;-71
2023/04/09 10:53:05;;;;;;;12.60;9.57;;;;;;;12.00;83.01;93264.84;5048888;28;20448;-71
2023/04/09 10:55:36;;;;;;;13.52;9.70;;;;;;;12.06;83.00;93265.81;5049127;28;20049;-71
2023/04/09 10:58:04;;;;;;;15.05;9.68;;;;;;;11.99;87.33;93267.69;5048646;28;20041;-71
2023/04/09 11:00:36;;;;;;;13.55;9.73;;;;;;;11.89;90.18;93263.00;5048732;28;20045;-71
2023/04/09 11:03:24;;;;;;;32.38;23.33;;;;;;;11.86;87.73;93250.59;5048990;28;20090;-71
2023/04/09 11:05:53;;;;;;;29.42;17.77;;;;;;;11.85;89.34;93254.94;5049134;28;20037;-71
2023/04/09 11:08:21;;;;;;;193.40;132.38;;;;;;;11.76;86.36;93256.25;5048647;28;20084;-71
2023/04/09 11:10:48;;;;;;;24.90;17.55;;;;;;;11.71;88.54;93246.59;5048840;28;20045;-71
2023/04/09 11:13:17;;;;;;;20.38;14.50;;;;;;;11.72;87.51;93252.53;5048474;28;20052;-71
2023/04/09 11:15:45;;;;;;;22.17;14.90;;;;;;;11.71;87.23;93251.75;5047494;28;20497;-71
2023/04/09 11:18:14;;;;;;;17.77;13.05;;;;;;;11.75;86.82;93252.09;5048698;28;20099;-71
2023/04/09 11:20:41;;;;;;;14.32;10.10;;;;;;;11.65;86.00;93246.66;5048550;28;20052;-71
2023/04/09 11:23:08;;;;;;;18.17;11.27;;;;;;;11.58;84.37;93251.91;5048122;28;20417;-71